createdAt,value
2022-12-11T00:01:59.299Z,2.60
2022-12-11T00:06:06.374Z,2.50
2022-12-11T00:10:09.618Z,2.50
2022-12-11T00:14:12.376Z,2.50
2022-12-11T00:18:15.514Z,2.50
2022-12-11T00:22:19.971Z,2.40
2022-12-11T00:26:22.829Z,2.30
2022-12-11T00:30:25.988Z,2.40
2022-12-11T00:34:30.021Z,2.30
2022-12-11T00:38:34.083Z,2.30
2022-12-11T00:42:36.778Z,2.20
2022-12-11T00:46:39.494Z,2.20
2022-12-11T00:50:42.360Z,2.20
2022-12-11T00:54:46.427Z,2.10
2022-12-11T00:58:50.281Z,2.20
2022-12-11T01:02:53.041Z,2.10
2022-12-11T01:06:55.818Z,2.10
2022-12-11T01:11:09.285Z,2.10
2022-12-11T01:15:12.560Z,2.00
2022-12-11T01:19:16.309Z,2.00
2022-12-11T01:23:19.055Z,1.90
2022-12-11T01:27:23.185Z,1.90
2022-12-11T01:31:26.003Z,2.00
2022-12-11T01:35:29.438Z,2.30
2022-12-11T01:39:32.133Z,2.10
2022-12-11T01:43:37.005Z,2.20
2022-12-11T01:47:39.769Z,2.00
2022-12-11T01:51:47.181Z,2.20
2022-12-11T01:55:51.948Z,2.10
2022-12-11T01:59:56.962Z,2.30
2022-12-11T02:04:00.078Z,2.20
2022-12-11T02:08:03.974Z,2.20
2022-12-11T02:12:12.783Z,2.10
2022-12-11T02:16:22.332Z,2.00
2022-12-11T02:20:29.428Z,2.00
2022-12-11T02:24:44.876Z,2.00
2022-12-11T02:28:52.066Z,2.10
2022-12-11T02:32:56.597Z,2.00
2022-12-11T02:37:06.559Z,2.00
2022-12-11T02:41:12.536Z,2.00
2022-12-11T02:45:18.809Z,2.00
2022-12-11T02:49:22.641Z,1.90
2022-12-11T02:53:28.998Z,1.90
2022-12-11T02:57:36.945Z,1.90
2022-12-11T03:01:41.039Z,1.90
2022-12-11T03:05:46.214Z,1.90
2022-12-11T03:09:49.345Z,1.90
2022-12-11T03:13:52.281Z,2.00
2022-12-11T03:18:04.840Z,1.90
2022-12-11T03:22:11.830Z,1.90
2022-12-11T03:26:16.562Z,1.80
2022-12-11T03:30:23.594Z,1.80
2022-12-11T03:34:31.882Z,1.80
2022-12-11T03:38:40.172Z,1.70
2022-12-11T03:42:45.381Z,1.70
2022-12-11T03:46:51.331Z,1.70
2022-12-11T03:50:55.956Z,1.60
2022-12-11T03:55:01.700Z,1.60
2022-12-11T03:59:04.570Z,1.60
2022-12-11T04:03:17.796Z,1.50
2022-12-11T04:07:21.960Z,1.40
2022-12-11T04:11:36.993Z,1.40
2022-12-11T04:15:40.844Z,1.40
2022-12-11T04:20:01.204Z,1.40
2022-12-11T04:24:18.137Z,1.40
2022-12-11T04:28:20.909Z,1.40
2022-12-11T04:32:23.594Z,1.50
2022-12-11T04:36:26.345Z,1.40
2022-12-11T04:40:30.509Z,1.40
2022-12-11T04:44:35.072Z,1.40
2022-12-11T04:48:38.314Z,1.40
2022-12-11T04:52:41.443Z,1.40
2022-12-11T04:56:45.574Z,1.40
2022-12-11T05:00:48.317Z,1.30
2022-12-11T05:04:51.031Z,1.30
2022-12-11T05:08:53.779Z,1.30
2022-12-11T05:12:57.821Z,1.30
2022-12-11T05:17:01.036Z,1.30
2022-12-11T05:21:06.379Z,1.40
2022-12-11T05:25:09.756Z,1.40
2022-12-11T05:29:13.972Z,1.50
2022-12-11T05:33:16.740Z,1.40
2022-12-11T05:37:19.460Z,1.40
2022-12-11T05:41:23.965Z,1.30
2022-12-11T05:45:28.053Z,1.20
2022-12-11T05:49:31.263Z,1.50
2022-12-11T05:53:34.272Z,1.20
2022-12-11T05:57:36.974Z,1.20
2022-12-11T06:01:43.597Z,1.00
2022-12-11T06:05:46.370Z,1.00
2022-12-11T06:09:49.027Z,1.00
2022-12-11T06:13:51.962Z,1.00
2022-12-11T06:17:55.964Z,1.10
2022-12-11T06:21:58.681Z,1.30
2022-12-11T06:26:01.416Z,1.20
2022-12-11T06:30:04.743Z,1.20
2022-12-11T06:34:09.937Z,1.20
2022-12-11T06:38:12.629Z,1.20
2022-12-11T06:42:16.482Z,1.00
2022-12-11T06:46:20.858Z,1.00
2022-12-11T06:50:25.053Z,0.90
2022-12-11T06:54:28.207Z,1.10
2022-12-11T06:58:30.915Z,0.90
2022-12-11T07:02:34.319Z,0.80
2022-12-11T07:06:38.478Z,0.80
2022-12-11T07:10:41.547Z,0.90
2022-12-11T07:14:44.248Z,0.90
2022-12-11T07:18:49.835Z,1.10
2022-12-11T07:22:55.166Z,0.80
2022-12-11T07:26:57.865Z,1.00
2022-12-11T07:31:00.596Z,1.20
2022-12-11T07:35:03.349Z,1.20
2022-12-11T07:39:08.283Z,1.50
2022-12-11T07:43:10.997Z,1.10
2022-12-11T07:47:13.732Z,1.30
2022-12-11T07:51:18.732Z,1.30
2022-12-11T07:55:22.864Z,1.20
2022-12-11T07:59:25.619Z,1.50
2022-12-11T08:03:28.549Z,1.40
2022-12-11T08:07:31.353Z,1.30
2022-12-11T08:11:35.764Z,1.10
2022-12-11T08:15:38.604Z,1.40
2022-12-11T08:19:41.279Z,1.30
2022-12-11T08:23:44.416Z,1.30
2022-12-11T08:27:48.511Z,1.30
2022-12-11T08:31:51.165Z,1.40
2022-12-11T08:35:53.877Z,1.50
2022-12-11T08:39:56.597Z,1.60
2022-12-11T08:44:01.687Z,1.60
2022-12-11T08:48:04.646Z,1.50
2022-12-11T08:52:07.414Z,1.60
2022-12-11T08:56:12.421Z,1.60
2022-12-11T09:00:18.478Z,1.60
2022-12-11T09:04:21.203Z,1.70
2022-12-11T09:08:23.911Z,1.80
2022-12-11T09:12:26.899Z,1.80
2022-12-11T09:16:31.684Z,1.80
2022-12-11T09:20:34.402Z,1.70
2022-12-11T09:24:37.159Z,1.80
2022-12-11T09:28:44.389Z,1.80
2022-12-11T09:32:50.187Z,2.20
2022-12-11T09:36:52.997Z,3.20
2022-12-11T09:40:56.090Z,4.60
2022-12-11T09:45:02.714Z,5.00
2022-12-11T09:49:18.500Z,5.10
2022-12-11T09:53:31.043Z,4.80
2022-12-11T09:57:47.191Z,4.50
2022-12-11T10:01:55.207Z,4.10
2022-12-11T10:06:05.235Z,3.70
2022-12-11T10:10:19.717Z,3.40
2022-12-11T10:14:30.069Z,3.30
2022-12-11T10:18:34.291Z,3.40
2022-12-11T10:22:38.540Z,3.50
2022-12-11T10:26:41.328Z,3.50
2022-12-11T10:30:49.689Z,3.70
2022-12-11T10:35:00.234Z,4.90
2022-12-11T10:39:12.012Z,6.90
2022-12-11T10:43:14.786Z,8.50
2022-12-11T10:47:19.553Z,9.90
2022-12-11T10:51:24.512Z,11.00
2022-12-11T10:55:30.378Z,12.20
2022-12-11T10:59:35.660Z,12.90
2022-12-11T11:03:53.348Z,13.20
2022-12-11T11:08:05.623Z,13.60
2022-12-11T11:12:22.290Z,14.00
2022-12-11T11:16:26.527Z,14.40
2022-12-11T11:20:31.920Z,14.90
2022-12-11T11:24:36.977Z,15.40
2022-12-11T11:28:45.941Z,15.90
2022-12-11T11:32:48.953Z,15.80
2022-12-11T11:36:57.638Z,15.20
2022-12-11T11:41:14.919Z,14.90
2022-12-11T11:45:23.969Z,14.50
2022-12-11T11:49:39.093Z,14.20
2022-12-11T11:53:42.518Z,13.20
2022-12-11T11:57:50.713Z,11.80
2022-12-11T12:01:57.574Z,10.60
2022-12-11T12:06:14.714Z,9.90
2022-12-11T12:10:23.169Z,9.20
2022-12-11T12:19:04.729Z,9.30
2022-12-11T12:23:37.825Z,10.30
2022-12-11T12:27:53.148Z,11.10
2022-12-11T12:32:06.132Z,11.80
2022-12-11T12:36:18.999Z,11.70
2022-12-11T12:40:29.093Z,11.50
2022-12-11T12:44:36.837Z,11.20
2022-12-11T12:48:39.977Z,10.30
2022-12-11T12:52:45.232Z,9.70
2022-12-11T12:56:49.325Z,9.00
2022-12-11T13:00:52.232Z,8.20
2022-12-11T13:04:59.270Z,7.60
2022-12-11T13:09:16.903Z,7.30
2022-12-11T13:13:35.532Z,6.70
2022-12-11T13:17:39.780Z,6.30
2022-12-11T13:21:42.544Z,6.00
2022-12-11T13:25:53.556Z,5.90
2022-12-11T13:30:07.426Z,5.70
2022-12-11T13:34:18.578Z,5.50
2022-12-11T13:38:22.153Z,5.40
2022-12-11T13:42:30.753Z,5.90
2022-12-11T13:46:36.991Z,6.10
2022-12-11T13:50:44.837Z,6.50
2022-12-11T13:54:50.258Z,6.20
2022-12-11T13:58:54.517Z,5.70
2022-12-11T14:03:00.453Z,5.80
2022-12-11T14:07:07.304Z,5.30
2022-12-11T14:11:10.092Z,5.00
2022-12-11T14:15:15.776Z,5.00
2022-12-11T14:19:20.806Z,4.70
2022-12-11T14:23:25.508Z,4.50
2022-12-11T14:27:28.915Z,4.70
2022-12-11T14:31:37.140Z,4.30
2022-12-11T14:35:42.883Z,4.30
2022-12-11T14:39:50.182Z,4.20
2022-12-11T14:43:58.036Z,3.90
2022-12-11T14:48:05.886Z,3.80
2022-12-11T14:52:17.004Z,4.00
2022-12-11T14:56:22.105Z,4.00
2022-12-11T15:00:28.101Z,3.70
2022-12-11T15:04:34.404Z,3.60
2022-12-11T15:08:39.414Z,3.50
2022-12-11T15:12:45.499Z,3.40
2022-12-11T15:16:48.658Z,3.10
2022-12-11T15:20:55.694Z,3.00
2022-12-11T15:24:58.958Z,3.20
2022-12-11T15:29:03.672Z,3.40
2022-12-11T15:33:20.242Z,3.40
2022-12-11T15:37:26.424Z,3.20
2022-12-11T15:41:33.178Z,2.60
2022-12-11T15:45:36.985Z,2.90
2022-12-11T15:49:39.697Z,2.60
2022-12-11T15:53:43.784Z,2.30
2022-12-11T15:57:48.764Z,2.20
2022-12-11T16:01:51.634Z,2.10
2022-12-11T16:05:54.541Z,2.10
2022-12-11T16:09:58.598Z,2.50
2022-12-11T16:14:04.170Z,2.20
2022-12-11T16:18:09.025Z,2.30
2022-12-11T16:22:13.704Z,2.10
2022-12-11T16:26:17.789Z,2.60
2022-12-11T16:30:20.728Z,2.50
2022-12-11T16:34:26.586Z,2.40
2022-12-11T16:38:29.297Z,2.40
2022-12-11T16:42:33.439Z,2.80
2022-12-11T16:46:36.227Z,2.30
2022-12-11T16:50:41.057Z,2.40
2022-12-11T16:54:43.749Z,1.90
2022-12-11T16:58:48.198Z,1.90
2022-12-11T17:02:51.049Z,2.30
2022-12-11T17:06:53.761Z,2.50
2022-12-11T17:10:56.495Z,2.50
2022-12-11T17:15:00.564Z,2.30
2022-12-11T17:19:05.238Z,2.70
2022-12-11T17:23:09.906Z,2.30
2022-12-11T17:27:12.618Z,2.30
2022-12-11T17:31:19.398Z,1.90
2022-12-11T17:35:22.288Z,2.00
2022-12-11T17:39:25.007Z,2.00
2022-12-11T17:43:27.843Z,1.90
2022-12-11T17:47:32.027Z,2.00
2022-12-11T17:51:34.769Z,2.10
2022-12-11T17:55:42.697Z,1.70
2022-12-11T17:59:45.616Z,1.90
2022-12-11T18:03:49.733Z,2.20
2022-12-11T18:07:57.390Z,2.20
2022-12-11T18:12:00.563Z,2.30
2022-12-11T18:16:06.153Z,1.80
2022-12-11T18:20:14.342Z,1.60
2022-12-11T18:24:17.149Z,1.80
2022-12-11T18:28:20.291Z,1.70
2022-12-11T18:32:23.077Z,1.50
2022-12-11T18:36:27.367Z,1.60
2022-12-11T18:40:30.161Z,1.50
2022-12-11T18:44:32.905Z,1.50
2022-12-11T18:48:35.652Z,1.50
2022-12-11T18:52:40.993Z,1.30
2022-12-11T18:56:43.839Z,1.30
2022-12-11T19:00:47.255Z,1.30
2022-12-11T19:04:50.083Z,1.20
2022-12-11T19:08:54.242Z,1.20
2022-12-11T19:12:56.990Z,1.20
2022-12-11T19:16:59.763Z,1.30
2022-12-11T19:21:08.814Z,1.20
2022-12-11T19:25:13.880Z,1.40
2022-12-11T19:29:21.575Z,1.20
2022-12-11T19:33:24.353Z,1.30
2022-12-11T19:37:27.153Z,1.30
2022-12-11T19:41:32.317Z,1.00
2022-12-11T19:45:35.233Z,1.00
2022-12-11T19:49:37.964Z,1.10
2022-12-11T19:53:42.007Z,0.90
2022-12-11T19:57:46.998Z,0.80
2022-12-11T20:01:49.979Z,0.60
2022-12-11T20:05:53.365Z,0.50
2022-12-11T20:09:56.551Z,0.40
2022-12-11T20:14:01.013Z,0.40
2022-12-11T20:18:03.936Z,0.50
2022-12-11T20:22:07.045Z,0.40
2022-12-11T20:26:11.014Z,0.30
2022-12-11T20:30:15.603Z,0.10
2022-12-11T20:34:18.416Z,0.00
2022-12-11T20:38:22.068Z,0.10
2022-12-11T20:42:25.923Z,0.10
2022-12-11T20:46:30.215Z,0.30
2022-12-11T20:50:32.984Z,0.20
2022-12-11T20:54:35.777Z,0.10
2022-12-11T20:58:38.720Z,0.00
2022-12-11T21:02:42.836Z,-0.10
2022-12-11T21:06:45.617Z,0.30
2022-12-11T21:10:48.423Z,0.00
2022-12-11T21:14:51.182Z,0.10
2022-12-11T21:18:56.015Z,0.10
2022-12-11T21:22:58.802Z,0.20
2022-12-11T21:27:01.549Z,0.40
2022-12-11T21:31:06.000Z,0.30
2022-12-11T21:35:11.231Z,0.40
2022-12-11T21:39:15.453Z,0.30
2022-12-11T21:43:18.466Z,0.70
2022-12-11T21:47:21.576Z,0.70
2022-12-11T21:51:34.074Z,0.90
2022-12-11T21:55:41.263Z,0.80
2022-12-11T21:59:43.997Z,0.50
2022-12-11T22:03:47.086Z,1.10
2022-12-11T22:07:51.257Z,0.50
2022-12-11T22:11:58.297Z,0.50
2022-12-11T22:16:01.561Z,0.20
2022-12-11T22:20:05.265Z,0.20
2022-12-11T22:24:09.965Z,0.30
2022-12-11T22:28:12.846Z,0.40
2022-12-11T22:32:16.562Z,0.40
2022-12-11T22:36:19.545Z,0.80
2022-12-11T22:40:23.752Z,0.40
2022-12-11T22:44:27.069Z,0.20
2022-12-11T22:48:29.850Z,0.50
2022-12-11T22:52:33.245Z,0.10
2022-12-11T22:56:37.286Z,0.30
2022-12-11T23:00:46.952Z,0.20
2022-12-11T23:04:49.774Z,0.30
2022-12-11T23:08:52.980Z,0.40
2022-12-11T23:12:57.088Z,0.50
2022-12-11T23:17:00.235Z,0.30
2022-12-11T23:21:03.354Z,0.40
2022-12-11T23:25:07.621Z,0.10
2022-12-11T23:29:12.030Z,0.20
2022-12-11T23:33:15.003Z,0.20
2022-12-11T23:37:17.744Z,0.80
2022-12-11T23:41:20.867Z,0.60
2022-12-11T23:45:25.344Z,0.30
2022-12-11T23:49:28.075Z,0.30
2022-12-11T23:53:30.934Z,0.10
2022-12-11T23:57:34.582Z,0.10
